KDQH

Details ICAO KDQH (DQH)
Name DOUGLAS MUNI
Region United States
Timezone America/New_York (UTC-5.0)
Plans Departing 6
Arriving 5
Stats Elevation 257 ft / 78 m (AMSL)
Location 31.476699° -82.860529°
Runways 1
Magnetic Variation 5.844° W
Sunrise 2017-12-12 12:22:53 UTC / 2017-12-12 07:22:53 Local
Sunset 2017-12-12 22:30:32 UTC / 2017-12-12 17:30:32 Local
Advertisement - Login to hide

Runways

ID Width Length Bearing (true) Bearing (mag) Surface Threshold Offset Overrun Length
04 100 ft / 30 m 6,014 ft / 1,833 m 36.76° 42.60° Asphalt 0 ft / 0 m 0 ft / 0 m
22 100 ft / 30 m 6,014 ft / 1,833 m 216.76° 222.60° Asphalt 0 ft / 0 m 0 ft / 0 m

Approach Navaids

Runway Type Ident Frequency Range Bearing (true) Bearing (mag) Slope Elevation
04 Localiser IDQH 108.70 MHz 18 nm / 33 km 36.80° 42.64° - 257 ft / 78 m (AMSL)
04 Glidescope IDQH 108.70 MHz 10 nm / 19 km 36.76° 42.60° 3.00° 243 ft / 74 m (AMSL)

Map

Weather


0- 5 10 15 20 25 30 35+ Temperature / ° C

Clouds and Precipitation
Forecast for 2017-12-13 00:00 UTC. Updated an hour ago

Ground ~20,000 ft ~40,000 ft Winds

METAR

KDQH 122355Z AUTO 31003KT 10SM CLR 10/00 A2997 RMK AO2

TAF

Not found

Frequencies

Recorded 119.07 MHz AWOS 3
Unicom 122.80 MHz CTAF/UNICOM
Warning: Do not use this data for real-world aviation or navigation. No guarantee of current accuracy is given.